createdAt,value
2022-11-07T00:01:14.822Z,1001.33
2022-11-07T00:04:21.399Z,1001.33
2022-11-07T00:07:28.658Z,1001.52
2022-11-07T00:10:35.849Z,1001.43
2022-11-07T00:13:42.401Z,1001.46
2022-11-07T00:16:49.307Z,1001.47
2022-11-07T00:19:56.539Z,1001.49
2022-11-07T00:23:03.081Z,1001.56
2022-11-07T00:26:10.501Z,1001.56
2022-11-07T00:29:17.320Z,1001.61
2022-11-07T00:32:24.264Z,1001.60
2022-11-07T00:35:31.344Z,1001.53
2022-11-07T00:38:38.232Z,1001.52
2022-11-07T00:41:45.105Z,1001.56
2022-11-07T00:44:52.275Z,1001.57
2022-11-07T00:47:59.167Z,1001.58
2022-11-07T00:51:05.944Z,1001.60
2022-11-07T00:54:13.103Z,1001.64
2022-11-07T00:57:19.979Z,1001.57
2022-11-07T01:00:26.895Z,1001.62
2022-11-07T01:03:33.728Z,1001.59
2022-11-07T01:06:40.989Z,1001.73
2022-11-07T01:09:47.893Z,1001.63
2022-11-07T01:12:54.771Z,1001.74
2022-11-07T01:16:01.909Z,1001.87
2022-11-07T01:19:08.402Z,1001.79
2022-11-07T01:22:15.822Z,1001.66
2022-11-07T01:25:23.182Z,1001.72
2022-11-07T01:28:29.722Z,1001.72
2022-11-07T01:31:36.827Z,1001.68
2022-11-07T01:34:44.045Z,1001.72
2022-11-07T01:37:50.613Z,1001.75
2022-11-07T01:40:55.966Z,1001.77
2022-11-07T01:44:03.007Z,1001.83
2022-11-07T01:47:09.977Z,1001.79
2022-11-07T01:50:17.391Z,1001.92
2022-11-07T01:53:23.986Z,1001.86
2022-11-07T01:56:31.135Z,1001.76
2022-11-07T01:59:38.399Z,1001.79
2022-11-07T02:02:45.033Z,1001.78
2022-11-07T02:05:52.284Z,1001.75
2022-11-07T02:08:59.361Z,1001.84
2022-11-07T02:12:06.315Z,1001.85
2022-11-07T02:15:13.231Z,1001.75
2022-11-07T02:18:20.203Z,1001.83
2022-11-07T02:21:27.647Z,1001.83
2022-11-07T02:24:34.318Z,1001.92
2022-11-07T02:27:41.682Z,1001.93
2022-11-07T02:30:48.674Z,1001.93
2022-11-07T02:33:55.285Z,1001.92
2022-11-07T02:37:02.545Z,1002.03
2022-11-07T02:40:09.501Z,1001.97
2022-11-07T02:43:16.570Z,1002.03
2022-11-07T02:46:24.200Z,1002.05
2022-11-07T02:49:31.259Z,1001.99
2022-11-07T02:52:38.349Z,1002.05
2022-11-07T02:55:45.569Z,1002.04
2022-11-07T02:58:52.556Z,1002.05
2022-11-07T03:01:59.787Z,1002.02
2022-11-07T03:05:07.271Z,1002.01
2022-11-07T03:08:14.385Z,1002.10
2022-11-07T03:11:21.484Z,1002.07
2022-11-07T03:14:28.620Z,1002.07
2022-11-07T03:17:35.775Z,1002.17
2022-11-07T03:20:42.766Z,1002.20
2022-11-07T03:23:49.800Z,1002.14
2022-11-07T03:26:56.817Z,1002.14
2022-11-07T03:30:04.167Z,1002.09
2022-11-07T03:33:11.209Z,1002.16
2022-11-07T03:36:18.256Z,1002.11
2022-11-07T03:39:26.121Z,1002.16
2022-11-07T03:42:33.482Z,1002.16
2022-11-07T03:45:40.483Z,1002.19
2022-11-07T03:48:47.440Z,1002.17
2022-11-07T03:51:54.761Z,1002.21
2022-11-07T03:55:01.810Z,1002.17
2022-11-07T03:58:08.781Z,1002.20
2022-11-07T04:01:16.238Z,1002.20
2022-11-07T04:04:22.887Z,1002.28
2022-11-07T04:07:30.175Z,1002.26
2022-11-07T04:10:37.541Z,1002.28
2022-11-07T04:13:44.155Z,1002.36
2022-11-07T04:16:51.478Z,1002.29
2022-11-07T04:19:58.574Z,1002.37
2022-11-07T04:23:05.566Z,1002.30
2022-11-07T04:26:12.937Z,1002.41
2022-11-07T04:29:19.818Z,1002.34
2022-11-07T04:32:26.801Z,1002.48
2022-11-07T04:35:33.772Z,1002.47
2022-11-07T04:38:41.162Z,1002.38
2022-11-07T04:41:48.151Z,1002.37
2022-11-07T04:44:55.141Z,1002.43
2022-11-07T04:48:02.521Z,1002.37
2022-11-07T04:51:09.213Z,1002.41
2022-11-07T04:54:16.572Z,1002.47
2022-11-07T04:57:23.935Z,1002.54
2022-11-07T05:00:30.674Z,1002.57
2022-11-07T05:03:41.835Z,1002.55
2022-11-07T05:06:38.893Z,1002.63
2022-11-07T05:09:45.677Z,1002.62
2022-11-07T05:12:52.758Z,1002.73
2022-11-07T05:15:59.799Z,1002.76
2022-11-07T05:19:06.767Z,1002.74
2022-11-07T05:22:14.248Z,1002.77
2022-11-07T05:25:21.141Z,1002.77
2022-11-07T05:28:36.834Z,1002.76
2022-11-07T05:31:32.689Z,1002.77
2022-11-07T05:34:39.614Z,1002.79
2022-11-07T05:37:46.585Z,1002.75
2022-11-07T05:40:53.564Z,1002.73
2022-11-07T05:44:00.915Z,1002.69
2022-11-07T05:47:07.883Z,1002.82
2022-11-07T05:50:15.133Z,1002.75
2022-11-07T05:53:22.669Z,1002.80
2022-11-07T05:56:30.014Z,1002.74
2022-11-07T05:59:37.286Z,1002.73
2022-11-07T06:02:44.580Z,1002.76
2022-11-07T06:05:51.418Z,1002.75
2022-11-07T06:08:59.067Z,1002.70
2022-11-07T06:12:06.249Z,1002.64
2022-11-07T06:15:13.705Z,1002.67
2022-11-07T06:18:21.323Z,1002.71
2022-11-07T06:21:28.255Z,1002.74
2022-11-07T06:24:35.404Z,1002.75
2022-11-07T06:27:43.396Z,1002.84
2022-11-07T06:30:50.694Z,1002.90
2022-11-07T06:33:57.956Z,1002.92
2022-11-07T06:37:05.899Z,1003.00
2022-11-07T06:40:13.338Z,1003.03
2022-11-07T06:43:20.970Z,1003.04
2022-11-07T06:46:28.638Z,1003.02
2022-11-07T06:49:35.600Z,1003.16
2022-11-07T06:52:43.270Z,1003.24
2022-11-07T06:55:50.790Z,1003.33
2022-11-07T06:58:57.821Z,1003.36
2022-11-07T07:02:05.843Z,1003.37
2022-11-07T07:05:17.096Z,1003.46
2022-11-07T07:08:16.831Z,1003.51
2022-11-07T07:11:24.114Z,1003.50
2022-11-07T07:14:31.002Z,1003.55
2022-11-07T07:17:38.379Z,1003.38
2022-11-07T07:20:45.796Z,1003.39
2022-11-07T07:23:53.057Z,1003.44
2022-11-07T07:27:00.477Z,1003.50
2022-11-07T07:30:07.839Z,1003.59
2022-11-07T07:33:15.787Z,1003.53
2022-11-07T07:36:23.357Z,1003.50
2022-11-07T07:39:30.561Z,1003.52
2022-11-07T07:42:38.210Z,1003.36
2022-11-07T07:45:45.625Z,1003.40
2022-11-07T07:48:53.042Z,1003.53
2022-11-07T07:52:00.711Z,1003.50
2022-11-07T07:55:07.755Z,1003.51
2022-11-07T07:58:15.443Z,1003.57
2022-11-07T08:01:23.614Z,1003.53
2022-11-07T08:04:30.525Z,1003.49
2022-11-07T08:07:38.285Z,1003.56
2022-11-07T08:10:46.206Z,1003.52
2022-11-07T08:13:57.132Z,1003.51
2022-11-07T08:16:56.791Z,1003.53
2022-11-07T08:20:03.828Z,1003.52
2022-11-07T08:23:16.460Z,1003.58
2022-11-07T08:26:13.741Z,1003.59
2022-11-07T08:29:20.651Z,1003.56
2022-11-07T08:32:28.281Z,1003.61
2022-11-07T08:35:41.165Z,1003.61
2022-11-07T08:38:38.702Z,1003.63
2022-11-07T08:41:46.498Z,1003.53
2022-11-07T08:44:53.736Z,1003.65
2022-11-07T08:48:01.225Z,1003.64
2022-11-07T08:51:08.902Z,1003.66
2022-11-07T08:54:16.021Z,1003.70
2022-11-07T08:57:23.497Z,1003.78
2022-11-07T09:00:30.875Z,1003.73
2022-11-07T09:03:45.933Z,1003.71
2022-11-07T09:06:42.570Z,1003.72
2022-11-07T09:09:50.160Z,1003.81
2022-11-07T09:12:57.982Z,1003.74
2022-11-07T09:16:05.156Z,1003.79
2022-11-07T09:19:12.269Z,1003.83
2022-11-07T09:22:19.693Z,1003.85
2022-11-07T09:25:26.757Z,1003.74
2022-11-07T09:28:33.694Z,1003.80
2022-11-07T09:31:41.109Z,1003.78
2022-11-07T09:34:52.507Z,1003.77
2022-11-07T09:37:52.370Z,1003.68
2022-11-07T09:40:59.529Z,1003.64
2022-11-07T09:44:06.524Z,1003.80
2022-11-07T09:47:13.578Z,1003.82
2022-11-07T09:50:21.209Z,1003.72
2022-11-07T09:53:28.519Z,1003.71
2022-11-07T09:56:35.518Z,1003.72
2022-11-07T09:59:42.592Z,1003.67
2022-11-07T10:02:49.493Z,1003.68
2022-11-07T10:05:56.603Z,1003.70
2022-11-07T10:09:03.557Z,1003.71
2022-11-07T10:12:10.728Z,1003.78
2022-11-07T10:15:17.556Z,1003.70
2022-11-07T10:18:25.145Z,1003.80
2022-11-07T10:21:39.716Z,1003.76
2022-11-07T10:24:35.290Z,1003.74
2022-11-07T10:27:42.718Z,1003.74
2022-11-07T10:30:49.396Z,1003.77
2022-11-07T10:33:56.873Z,1003.80
2022-11-07T10:37:03.917Z,1003.75
2022-11-07T10:40:11.967Z,1003.78
2022-11-07T10:43:19.627Z,1003.78
2022-11-07T10:46:27.073Z,1003.76
2022-11-07T10:49:33.855Z,1003.88
2022-11-07T10:52:41.031Z,1003.84
2022-11-07T10:55:47.970Z,1003.82
2022-11-07T10:58:55.088Z,1003.89
2022-11-07T11:02:02.635Z,1003.90
2022-11-07T11:05:09.338Z,1003.98
2022-11-07T11:08:17.136Z,1003.86
2022-11-07T11:11:24.912Z,1003.88
2022-11-07T11:14:31.670Z,1003.77
2022-11-07T11:17:39.153Z,1003.92
2022-11-07T11:20:46.639Z,1003.89
2022-11-07T11:23:53.366Z,1003.87
2022-11-07T11:27:00.805Z,1003.91
2022-11-07T11:30:07.965Z,1003.93
2022-11-07T11:33:15.649Z,1003.88
2022-11-07T11:36:23.237Z,1003.98
2022-11-07T11:39:30.208Z,1003.89
2022-11-07T11:42:37.155Z,1003.93
2022-11-07T11:45:44.140Z,1003.89
2022-11-07T11:48:51.600Z,1003.84
2022-11-07T11:51:58.620Z,1003.80
2022-11-07T11:55:05.408Z,1003.76
2022-11-07T11:58:12.720Z,1003.84
2022-11-07T12:01:19.686Z,1003.82
2022-11-07T12:04:26.696Z,1003.69
2022-11-07T12:07:33.995Z,1003.66
2022-11-07T12:10:40.663Z,1003.61
2022-11-07T12:13:48.008Z,1003.59
2022-11-07T12:16:55.235Z,1003.53
2022-11-07T12:20:01.959Z,1003.54
2022-11-07T12:23:09.389Z,1003.53
2022-11-07T12:26:16.779Z,1003.42
2022-11-07T12:29:23.434Z,1003.40
2022-11-07T12:32:30.872Z,1003.39
2022-11-07T12:35:38.045Z,1003.45
2022-11-07T12:38:45.134Z,1003.37
2022-11-07T12:41:52.605Z,1003.39
2022-11-07T12:44:59.542Z,1003.49
2022-11-07T12:48:12.877Z,1003.36
2022-11-07T12:51:09.889Z,1003.40
2022-11-07T12:54:16.872Z,1003.42
2022-11-07T12:57:23.919Z,1003.40
2022-11-07T13:00:30.839Z,1003.37
2022-11-07T13:03:37.991Z,1003.42
2022-11-07T13:06:45.034Z,1003.47
2022-11-07T13:09:52.272Z,1003.40
2022-11-07T13:12:59.483Z,1003.42
2022-11-07T13:16:21.628Z,1003.50
2022-11-07T13:19:10.774Z,1003.46
2022-11-07T13:22:18.270Z,1003.48
2022-11-07T13:25:24.997Z,1003.60
2022-11-07T13:28:32.185Z,1003.59
2022-11-07T13:31:39.279Z,1003.63
2022-11-07T13:34:46.141Z,1003.65
2022-11-07T13:37:53.640Z,1003.69
2022-11-07T13:41:00.282Z,1003.70
2022-11-07T13:44:07.679Z,1003.73
2022-11-07T13:47:15.028Z,1003.75
2022-11-07T13:50:21.744Z,1003.68
2022-11-07T13:53:29.028Z,1003.78
2022-11-07T13:56:36.724Z,1003.85
2022-11-07T13:59:43.456Z,1003.89
2022-11-07T14:02:50.924Z,1003.89
2022-11-07T14:05:58.428Z,1003.84
2022-11-07T14:09:05.085Z,1003.86
2022-11-07T14:12:12.385Z,1003.85
2022-11-07T14:15:19.400Z,1003.91
2022-11-07T14:18:26.301Z,1003.95
2022-11-07T14:21:33.313Z,1003.97
2022-11-07T14:24:40.322Z,1003.96
2022-11-07T14:27:47.683Z,1004.09
2022-11-07T14:30:54.856Z,1004.00
2022-11-07T14:34:02.077Z,1004.06
2022-11-07T14:37:09.368Z,1004.07
2022-11-07T14:40:16.538Z,1004.06
2022-11-07T14:43:24.108Z,1004.19
2022-11-07T14:46:31.322Z,1004.12
2022-11-07T14:49:38.484Z,1004.14
2022-11-07T14:52:45.813Z,1004.18
2022-11-07T14:55:52.942Z,1004.14
2022-11-07T14:58:59.785Z,1004.11
2022-11-07T15:02:07.319Z,1004.10
2022-11-07T15:05:14.497Z,1004.07
2022-11-07T15:08:21.395Z,1004.18
2022-11-07T15:11:28.796Z,1004.22
2022-11-07T15:14:35.866Z,1004.17
2022-11-07T15:17:43.251Z,1004.25
2022-11-07T15:20:50.746Z,1004.33
2022-11-07T15:23:58.519Z,1004.33
2022-11-07T15:27:05.923Z,1004.28
2022-11-07T15:30:13.432Z,1004.35
2022-11-07T15:33:21.171Z,1004.35
2022-11-07T15:36:28.247Z,1004.33
2022-11-07T15:39:35.880Z,1004.24
2022-11-07T15:42:43.445Z,1004.26
2022-11-07T15:45:50.902Z,1004.29
2022-11-07T15:48:58.202Z,1004.34
2022-11-07T15:52:05.976Z,1004.34
2022-11-07T15:55:13.037Z,1004.47
2022-11-07T15:58:20.754Z,1004.42
2022-11-07T16:01:28.494Z,1004.46
2022-11-07T16:04:39.614Z,1004.47
2022-11-07T16:07:37.168Z,1004.46
2022-11-07T16:10:44.735Z,1004.48
2022-11-07T16:13:59.341Z,1004.49
2022-11-07T16:16:56.792Z,1004.52
2022-11-07T16:20:04.206Z,1004.51
2022-11-07T16:23:11.424Z,1004.54
2022-11-07T16:26:19.095Z,1004.64
2022-11-07T16:29:25.923Z,1004.56
2022-11-07T16:32:33.098Z,1004.58
2022-11-07T16:35:40.576Z,1004.55
2022-11-07T16:38:47.782Z,1004.60
2022-11-07T16:41:56.461Z,1004.64
2022-11-07T16:45:04.110Z,1004.59
2022-11-07T16:48:11.474Z,1004.65
2022-11-07T16:51:19.085Z,1004.67
2022-11-07T16:54:26.120Z,1004.72
2022-11-07T16:57:33.286Z,1004.72
2022-11-07T17:00:40.124Z,1004.73
2022-11-07T17:03:47.099Z,1004.68
2022-11-07T17:06:54.353Z,1004.70
2022-11-07T17:10:01.114Z,1004.69
2022-11-07T17:13:08.737Z,1004.70
2022-11-07T17:16:16.439Z,1004.77
2022-11-07T17:19:23.150Z,1004.74
2022-11-07T17:22:30.140Z,1004.72
2022-11-07T17:25:37.151Z,1004.66
2022-11-07T17:28:43.851Z,1004.72
2022-11-07T17:31:51.181Z,1004.73
2022-11-07T17:35:25.674Z,1004.78
2022-11-07T17:38:02.110Z,1004.78
2022-11-07T17:41:09.668Z,1004.84
2022-11-07T17:44:16.825Z,1004.83
2022-11-07T17:47:23.775Z,1004.84
2022-11-07T17:50:30.577Z,1004.88
2022-11-07T17:53:37.628Z,1004.86
2022-11-07T17:56:44.672Z,1004.88
2022-11-07T17:59:51.989Z,1004.79
2022-11-07T18:02:59.448Z,1004.83
2022-11-07T18:06:06.570Z,1004.87
2022-11-07T18:09:13.723Z,1004.90
2022-11-07T18:12:20.833Z,1004.94
2022-11-07T18:15:28.092Z,1004.92
2022-11-07T18:18:36.573Z,1004.98
2022-11-07T18:21:43.884Z,1004.96
2022-11-07T18:24:50.996Z,1004.98
2022-11-07T18:27:58.615Z,1004.97
2022-11-07T18:31:06.049Z,1004.98
2022-11-07T18:34:12.849Z,1005.00
2022-11-07T18:37:19.954Z,1004.89
2022-11-07T18:40:27.569Z,1004.90
2022-11-07T18:43:34.330Z,1004.94
2022-11-07T18:46:41.640Z,1004.94
2022-11-07T18:49:51.541Z,1005.02
2022-11-07T18:52:51.671Z,1004.99
2022-11-07T18:55:59.233Z,1005.03
2022-11-07T18:59:06.364Z,1005.12
2022-11-07T19:02:13.455Z,1005.12
2022-11-07T19:05:20.959Z,1005.03
2022-11-07T19:08:28.203Z,1005.07
2022-11-07T19:11:35.363Z,1005.05
2022-11-07T19:14:42.547Z,1005.03
2022-11-07T19:17:49.998Z,1005.06
2022-11-07T19:20:57.217Z,1005.05
2022-11-07T19:24:04.399Z,1005.04
2022-11-07T19:27:11.670Z,1005.10
2022-11-07T19:30:18.926Z,1005.05
2022-11-07T19:33:26.022Z,1005.07
2022-11-07T19:36:33.454Z,1005.07
2022-11-07T19:39:40.414Z,1005.08
2022-11-07T19:42:47.163Z,1004.99
2022-11-07T19:45:54.464Z,1004.96
2022-11-07T19:49:01.121Z,1004.98
2022-11-07T19:52:08.626Z,1004.93
2022-11-07T19:55:16.185Z,1005.01
2022-11-07T19:58:23.029Z,1004.99
2022-11-07T20:01:30.910Z,1005.06
2022-11-07T20:04:38.608Z,1005.06
2022-11-07T20:07:46.250Z,1004.98
2022-11-07T20:10:54.372Z,1004.99
2022-11-07T20:14:03.728Z,1005.05
2022-11-07T20:17:11.181Z,1005.04
2022-11-07T20:20:18.200Z,1005.07
2022-11-07T20:23:25.228Z,1005.10
2022-11-07T20:26:32.525Z,1005.05
2022-11-07T20:29:39.557Z,1005.10
2022-11-07T20:32:46.650Z,1005.06
2022-11-07T20:35:53.999Z,1005.16
2022-11-07T20:39:01.247Z,1005.16
2022-11-07T20:42:08.226Z,1005.09
2022-11-07T20:45:15.747Z,1005.18
2022-11-07T20:48:22.500Z,1005.20
2022-11-07T20:51:29.982Z,1005.20
2022-11-07T20:54:37.512Z,1005.25
2022-11-07T20:57:44.285Z,1005.20
2022-11-07T21:00:51.606Z,1005.22
2022-11-07T21:03:58.886Z,1005.30
2022-11-07T21:07:05.593Z,1005.31
2022-11-07T21:10:13.239Z,1005.32
2022-11-07T21:13:20.430Z,1005.33
2022-11-07T21:16:27.576Z,1005.28
2022-11-07T21:19:34.648Z,1005.30
2022-11-07T21:22:41.556Z,1005.29
2022-11-07T21:25:48.560Z,1005.32
2022-11-07T21:28:55.872Z,1005.34
2022-11-07T21:32:02.913Z,1005.33
2022-11-07T21:35:12.172Z,1005.29
2022-11-07T21:38:20.109Z,1005.25
2022-11-07T21:41:27.523Z,1005.29
2022-11-07T21:44:35.453Z,1005.21
2022-11-07T21:47:45.904Z,1005.24
2022-11-07T21:50:53.155Z,1005.24
2022-11-07T21:54:00.494Z,1005.17
2022-11-07T21:57:07.608Z,1005.21
2022-11-07T22:00:14.847Z,1005.19
2022-11-07T22:03:43.678Z,1005.17
2022-11-07T22:06:26.641Z,1005.16
2022-11-07T22:09:34.039Z,1005.21
2022-11-07T22:12:41.381Z,1005.20
2022-11-07T22:15:48.914Z,1005.17
2022-11-07T22:18:56.331Z,1005.19
2022-11-07T22:22:03.713Z,1005.21
2022-11-07T22:25:11.531Z,1005.18
2022-11-07T22:28:18.843Z,1005.21
2022-11-07T22:31:26.206Z,1005.18
2022-11-07T22:34:34.054Z,1005.18
2022-11-07T22:37:41.090Z,1005.20
2022-11-07T22:40:48.826Z,1005.11
2022-11-07T22:43:56.466Z,1005.15
2022-11-07T22:47:03.555Z,1005.17
2022-11-07T22:50:11.230Z,1005.18
2022-11-07T22:53:13.169Z,1005.16
2022-11-07T22:56:20.101Z,1005.16
2022-11-07T22:59:27.704Z,1005.10
2022-11-07T23:02:34.969Z,1005.11
2022-11-07T23:05:42.263Z,1005.08
2022-11-07T23:08:50.053Z,1005.12
2022-11-07T23:11:57.083Z,1005.07
2022-11-07T23:15:04.906Z,1005.15
2022-11-07T23:18:12.463Z,1005.16
2022-11-07T23:21:19.396Z,1005.16
2022-11-07T23:24:27.061Z,1005.15
2022-11-07T23:27:34.396Z,1005.10
2022-11-07T23:30:41.708Z,1005.11
2022-11-07T23:33:49.380Z,1005.15
2022-11-07T23:36:56.708Z,1005.15
2022-11-07T23:40:03.892Z,1005.16
2022-11-07T23:43:11.623Z,1005.08
2022-11-07T23:46:18.904Z,1005.11
2022-11-07T23:49:26.363Z,1005.09
2022-11-07T23:52:34.146Z,1005.07
2022-11-07T23:55:41.481Z,1005.03
2022-11-07T23:58:48.825Z,1005.00
